« 春雨 百里飛行場 2014/3/14 fri | トップページ | FINAL747福島物語 福島空港 2014/3/15 sat »

2014/03/16

FINAL747仙台物語 仙台空港 2014/3/15 sat

ANAは3月31日で退役するボーイング747について、「THANKS JUMBO! FINAL747」と銘打って、さよならキャンペーンを遂行中!

そんな中、「心の翼プロジェクト」ボーイング 747-400卒業フライトが行われる仙台空港へ一年半ぶりに訪れた。

RJSS 142100Z 36003KT 290V020 9999 FEW020 SCT/// M01/M04 Q1015

20140315_rjss_00sendaikariyon

昨年設置された「カリヨンの鐘」に鎮魂の礼

20140315_rjss_01sendaitm

ターミナルビルに刻まれた津波到達のプレートを見上げて、あらためて自然に畏怖

20140315_rjss_02final747

ターミナル開館で、準備中のANA受付ブース

20140315_rjss_03airplane

4発のプロペラ機なら、エレクトラやね

RJSS 142200Z 02004KT 350V090 9999 FEW020 BKN/// 01/M03 Q1016

20140315_rjss_04fc

7時に展望デッキ無料開放。開放時はざっと80名ほどが並んでいたかな・・

20140315_rjss_05ibex

出発準備を進めるエプロンを眺めると、10機も小型ジェットがいるんだ。新顔のスカイマークもお泊りしていた。

20140315_rjss_06hakucyo

海岸線を北へ向かう白鳥の一群が飛び去った。

20140315_rjss_07ja8941

7時15分頃、仙台VORをヒットして、時間まで上空待機に入ったB747をインサイト。

20140315_rjss_08ja203j

空港運用開始で、露払いのCRJがエアボーン

JAL2901 RJSS-RJCC JA203J CRJ-200ER

20140315_rjss_09ja8941

7:46 JA8961がファイナル

20140315_rjss_09aja8941

一度、この高度でRWローパス

20140315_rjss_09bja8941

レフトダウンウインドを周って

20140315_rjss_10ja8941

20140315_rjss_11ja8941

着陸時は、JA357Kが太刀持ちだね。

20140315_rjss_12ja8941

20140315_rjss_13ja8941

プレスステーションを堂々のタクシー

20140315_rjss_14ja8941

ERJも控え・・

20140315_rjss_15ja8941

20140315_rjss_16ja8941

20140315_rjss_17ja8941

20140315_rjss_18ja8941

7:59 ブロックイン

ANA9401 RJTT-RJSS JA8961 B747-481D

20140315_rjss_19ja8941

20140315_rjss_20ja8941

卒業フライトに向けて給油中

RJSS 150100Z 32017KT 9999 FEW020 SCT050 06/M05 Q1018

20140315_rjss_21ja8941

ボーイング747-400見学&写真撮影会が始まり、少数のグループに分かれて機体の各部を廻って見学。エンジンは登り台が用意され、エンジンの高さで写真撮影が可能。

20140315_rjss_22ja8674

ANAもちゃんと調整してあって、大阪からの731にはYOU&MEが入った。見学者も嬉しいエプロンからの撮影。

20140315_rjss_23date

10:35 見学者の皆さんに「むすび丸」も参加して、卒業フライトのお見送りです。

20140315_rjss_24ja8941

20140315_rjss_25ja8941

白い手袋が眩しいコクピット

20140315_rjss_26ja8941

20140315_rjss_27ja8941

20140315_rjss_28ja8941

盛大なお見送り

20140315_rjss_29ja8941

20140315_rjss_30ja8941

空港外周にも、見学者がずらり

20140315_rjss_31ja357k

今度は、到着時太刀持ちだったJA357Kの着陸を待って、ラインナップです。出来すぎぃぃぃ!

20140315_rjss_32ja8941

20140315_rjss_33ja8941

軽々とエアボーン

20140315_rjss_34ja8941

ANA2052 RJSS-RJSS JA8961 B747-481D

いってらっしゃーい! 楽しんできてねぇ

どんなコースを周ったかは、後報の報道を確認するとして・・・

|

« 春雨 百里飛行場 2014/3/14 fri | トップページ | FINAL747福島物語 福島空港 2014/3/15 sat »

仙台空港」カテゴリの記事

コメント

おはようございます。

昨日の熊本はタッチンゴー1回だけでした。
テイクオフ後はレーダーベクターでMISMI。
その後キャンセルIFRでRWY25ライトトラフィックパターンでタッチンゴーでした。

ちなみに遊覧フライトは、熊本リバーサル5ディパーチャーという珍しいSIDでした。

ジャンボが飛来する前は07運用だったんですが、ジャンボが来る前から急に風が変わったため、25運用になりました。

G4さんもやはり行かれたみたいですね(笑)
相変わらずのフットワークの軽さには脱帽します。

投稿: シャイアン | 2014/03/17 07:46

コメントを書く



(ウェブ上には掲載しません)


コメントは記事投稿者が公開するまで表示されません。



トラックバック


この記事へのトラックバック一覧です: FINAL747仙台物語 仙台空港 2014/3/15 sat:

« 春雨 百里飛行場 2014/3/14 fri | トップページ | FINAL747福島物語 福島空港 2014/3/15 sat »